Terminal Aerodrome Forecast
Issued by NWS Boston, MA

Home | Current Version | Previous Version | Text Only | Print | Product List | Glossary On
Versions: 1 2 3 4 5 6 7 8 9 10 11 12 13 14 15 16 17 18 19 20 21
000
FTUS41 KBOX 260536
TAFBDL
TAF
KBDL 260536Z 2606/2712 16003KT P6SM SCT200
     FM260800 16003KT 2SM BR BKN010
     FM261300 00000KT P6SM BKN030
     FM261500 VRB03KT P6SM SCT040
     FM270400 18004KT 5SM BR SCT040
     FM270800 00000KT 2SM BR BKN008=

USA.gov is the U.S. government's official web portal to all federal, state and local government web resources and services.